createdAt,value
2019-01-05T00:04:51.572Z,3.03
2019-01-05T00:10:11.309Z,2.97
2019-01-05T00:15:41.555Z,2.60
2019-01-05T00:21:00.622Z,2.43
2019-01-05T00:26:19.713Z,2.30
2019-01-05T00:31:37.259Z,2.30
2019-01-05T00:37:00.914Z,2.47
2019-01-05T00:42:23.502Z,2.33
2019-01-05T00:47:55.056Z,2.10
2019-01-05T00:53:29.383Z,2.27
2019-01-05T00:59:06.511Z,1.80
2019-01-05T01:04:25.520Z,1.93
2019-01-05T01:09:49.170Z,1.80
2019-01-05T01:15:21.568Z,2.27
2019-01-05T01:20:39.182Z,2.10
2019-01-05T01:26:01.887Z,1.83
2019-01-05T01:31:19.214Z,2.40
2019-01-05T01:36:43.624Z,2.40
2019-01-05T01:42:02.543Z,2.33
2019-01-05T01:47:20.558Z,2.00
2019-01-05T01:52:50.642Z,2.20
2019-01-05T01:58:10.211Z,2.00
2019-01-05T02:03:30.146Z,1.77
2019-01-05T02:08:52.496Z,1.53
2019-01-05T02:14:15.132Z,1.50
2019-01-05T02:19:50.874Z,1.37
2019-01-05T02:25:59.396Z,1.40
2019-01-05T02:32:11.000Z,0.90
2019-01-05T02:38:05.003Z,1.50
2019-01-05T02:44:16.758Z,1.10
2019-01-05T02:50:00.804Z,1.00
2019-01-05T02:56:12.118Z,1.00
2019-01-05T03:02:10.991Z,0.80
2019-01-05T03:07:43.322Z,0.60
2019-01-05T03:13:44.191Z,0.70
2019-01-05T03:19:39.295Z,0.80
2019-01-05T03:25:25.619Z,0.97
2019-01-05T03:30:59.752Z,0.77
2019-01-05T03:36:51.155Z,0.70
2019-01-05T03:42:42.130Z,0.90
2019-01-05T03:48:27.199Z,0.80
2019-01-05T03:54:08.796Z,0.60
2019-01-05T03:59:59.543Z,0.80
2019-01-05T04:06:03.459Z,0.90
2019-01-05T04:11:55.531Z,1.00
2019-01-05T04:17:57.210Z,0.87
2019-01-05T04:24:13.303Z,0.93
2019-01-05T04:29:59.214Z,0.80
2019-01-05T04:35:50.335Z,0.90
2019-01-05T04:41:49.110Z,0.80
2019-01-05T04:47:56.942Z,0.70
2019-01-05T04:53:54.192Z,0.90
2019-01-05T04:59:46.254Z,0.80
2019-01-05T05:05:43.568Z,0.70
2019-01-05T05:11:32.362Z,0.80
2019-01-05T05:17:30.924Z,0.80
2019-01-05T05:23:27.620Z,0.80
2019-01-05T05:29:50.160Z,0.80
2019-01-05T05:35:49.294Z,0.63
2019-01-05T05:42:01.462Z,0.63
2019-01-05T05:48:17.410Z,0.73
2019-01-05T05:54:32.921Z,0.63
2019-01-05T06:00:34.819Z,0.83
2019-01-05T06:06:40.171Z,1.20
2019-01-05T06:12:36.558Z,1.10
2019-01-05T06:18:17.648Z,1.03
2019-01-05T06:24:40.414Z,1.13
2019-01-05T06:31:04.716Z,0.90
2019-01-05T06:36:48.581Z,1.03
2019-01-05T06:42:41.322Z,0.93
2019-01-05T06:48:34.626Z,1.50
2019-01-05T06:54:35.179Z,1.40
2019-01-05T07:00:16.546Z,1.73
2019-01-05T07:05:57.674Z,2.30
2019-01-05T07:11:54.290Z,1.87
2019-01-05T07:18:03.551Z,2.20
2019-01-05T07:23:50.323Z,2.80
2019-01-05T07:30:00.326Z,3.00
2019-01-05T07:35:46.913Z,2.77
2019-01-05T07:41:35.779Z,3.07
2019-01-05T07:47:35.030Z,3.07
2019-01-05T07:53:16.430Z,3.57
2019-01-05T07:59:05.513Z,3.17
2019-01-05T08:04:54.358Z,2.50
2019-01-05T08:10:54.022Z,2.50
2019-01-05T08:16:53.086Z,2.50
2019-01-05T08:28:58.442Z,4.13
2019-01-05T08:35:13.767Z,2.80
2019-01-05T08:41:12.976Z,2.70
2019-01-05T08:47:06.880Z,2.23
2019-01-05T08:53:00.451Z,2.83
2019-01-05T08:58:59.555Z,2.47
2019-01-05T09:04:48.956Z,2.40
2019-01-05T09:10:40.178Z,2.73
2019-01-05T09:16:46.874Z,2.50
2019-01-05T09:22:39.606Z,3.53
2019-01-05T09:28:49.412Z,3.07
2019-01-05T09:34:48.230Z,3.63
2019-01-05T09:40:55.977Z,3.40
2019-01-05T09:47:12.514Z,3.10
2019-01-05T09:53:23.973Z,2.53
2019-01-05T09:59:21.252Z,2.30
2019-01-05T10:05:05.646Z,2.37
2019-01-05T10:11:18.801Z,1.90
2019-01-05T10:17:12.798Z,1.83
2019-01-05T10:23:11.991Z,2.93
2019-01-05T10:29:25.576Z,2.43
2019-01-05T10:35:18.829Z,1.73
2019-01-05T10:41:09.967Z,2.57
2019-01-05T10:47:08.229Z,2.33
2019-01-05T10:53:02.657Z,2.87
2019-01-05T10:59:13.782Z,2.20
2019-01-05T11:05:21.145Z,2.47
2019-01-05T11:11:07.923Z,2.43
2019-01-05T11:16:58.159Z,2.60
2019-01-05T11:22:57.963Z,2.27
2019-01-05T11:28:57.303Z,3.43
2019-01-05T11:35:18.206Z,2.60
2019-01-05T11:41:37.749Z,2.47
2019-01-05T11:47:43.941Z,2.10
2019-01-05T11:53:48.733Z,1.63
2019-01-05T11:59:47.562Z,2.77
2019-01-05T12:05:50.871Z,3.00
2019-01-05T12:11:32.879Z,1.50
2019-01-05T12:17:22.574Z,2.23
2019-01-05T12:23:30.108Z,2.47
2019-01-05T12:29:06.987Z,1.57
2019-01-05T12:35:13.285Z,2.00
2019-01-05T12:41:16.197Z,2.60
2019-01-05T12:47:20.978Z,1.90
2019-01-05T12:53:09.651Z,2.33
2019-01-05T12:59:33.082Z,2.60
2019-01-05T13:05:41.739Z,2.10
2019-01-05T13:12:01.434Z,2.20
2019-01-05T13:17:43.250Z,1.97
2019-01-05T13:23:48.383Z,2.40
2019-01-05T13:29:45.767Z,2.00
2019-01-05T13:35:48.608Z,2.40
2019-01-05T13:41:44.739Z,2.30
2019-01-05T13:48:01.570Z,2.53
2019-01-05T13:53:28.751Z,3.07
2019-01-05T13:58:50.554Z,2.83
2019-01-05T14:04:21.895Z,2.53
2019-01-05T14:09:39.267Z,2.47
2019-01-05T14:14:53.189Z,2.00
2019-01-05T14:20:13.666Z,2.27
2019-01-05T14:25:27.114Z,1.93
2019-01-05T14:30:44.499Z,2.27
2019-01-05T14:35:56.473Z,2.43
2019-01-05T14:41:10.843Z,1.50
2019-01-05T14:46:22.642Z,1.57
2019-01-05T14:51:40.046Z,1.47
2019-01-05T14:56:57.384Z,1.37
2019-01-05T15:02:17.127Z,6.30
2019-01-05T15:07:45.836Z,2.53
2019-01-05T15:13:11.453Z,1.70
2019-01-05T15:18:25.447Z,2.40
2019-01-05T15:23:35.587Z,2.37
2019-01-05T15:28:52.914Z,5.90
2019-01-05T15:34:29.912Z,2.00
2019-01-05T15:39:47.542Z,2.00
2019-01-05T15:45:16.075Z,1.90
2019-01-05T15:50:33.674Z,2.33
2019-01-05T15:55:45.641Z,2.00
2019-01-05T16:01:11.879Z,2.30
2019-01-05T16:06:29.579Z,4.20
2019-01-05T16:11:47.583Z,7.20
2019-01-05T16:17:00.507Z,4.10
2019-01-05T16:22:18.015Z,3.13
2019-01-05T16:27:38.982Z,4.00
2019-01-05T16:32:57.665Z,9.27
2019-01-05T16:38:23.313Z,5.10
2019-01-05T16:43:34.993Z,1.73
2019-01-05T16:49:06.061Z,4.07
2019-01-05T16:54:25.237Z,2.23
2019-01-05T16:59:46.942Z,4.07
2019-01-05T17:04:57.554Z,2.67
2019-01-05T17:10:10.095Z,2.30
2019-01-05T17:15:32.154Z,3.57
2019-01-05T17:20:43.228Z,2.97
2019-01-05T17:26:01.491Z,3.17
2019-01-05T17:31:11.653Z,2.37
2019-01-05T17:36:33.311Z,3.17
2019-01-05T17:41:46.562Z,2.80
2019-01-05T17:47:02.338Z,2.17
2019-01-05T17:52:17.716Z,2.27
2019-01-05T17:57:34.771Z,3.23
2019-01-05T18:03:02.609Z,2.27
2019-01-05T18:08:24.549Z,1.70
2019-01-05T18:13:42.154Z,2.30
2019-01-05T18:19:04.099Z,1.70
2019-01-05T18:24:41.258Z,1.87
2019-01-05T18:29:58.338Z,1.60
2019-01-05T18:35:20.709Z,1.53
2019-01-05T18:40:38.421Z,1.27
2019-01-05T18:45:56.077Z,1.40
2019-01-05T18:51:33.049Z,0.93
2019-01-05T18:56:50.163Z,1.20
2019-01-05T19:02:06.344Z,1.10
2019-01-05T19:07:26.075Z,1.27
2019-01-05T19:12:37.526Z,1.70
2019-01-05T19:18:02.255Z,2.43
2019-01-05T19:23:15.884Z,0.80
2019-01-05T19:28:22.398Z,2.30
2019-01-05T19:33:50.131Z,1.10
2019-01-05T19:39:11.594Z,2.37
2019-01-05T19:44:29.278Z,1.93
2019-01-05T19:49:59.799Z,1.80
2019-01-05T19:55:12.198Z,1.43
2019-01-05T20:00:22.880Z,1.00
2019-01-05T20:05:42.496Z,1.47
2019-01-05T20:10:56.159Z,1.30
2019-01-05T20:16:15.722Z,1.40
2019-01-05T20:21:34.372Z,1.87
2019-01-05T20:26:49.063Z,1.10
2019-01-05T20:32:08.654Z,1.77
2019-01-05T20:37:28.647Z,1.37
2019-01-05T20:42:46.330Z,1.67
2019-01-05T20:48:05.382Z,1.10
2019-01-05T20:53:24.784Z,1.60
2019-01-05T20:58:42.138Z,1.20
2019-01-05T21:04:12.986Z,1.30
2019-01-05T21:09:47.074Z,1.80
2019-01-05T21:15:02.014Z,1.60
2019-01-05T21:20:19.669Z,1.57
2019-01-05T21:25:40.501Z,1.20
2019-01-05T21:31:00.142Z,1.77
2019-01-05T21:36:28.912Z,1.40
2019-01-05T21:41:40.146Z,1.50
2019-01-05T21:46:50.726Z,0.97
2019-01-05T21:52:20.970Z,2.27
2019-01-05T21:57:41.277Z,1.50
2019-01-05T22:03:01.482Z,1.30
2019-01-05T22:08:19.182Z,2.00
2019-01-05T22:13:36.959Z,1.97
2019-01-05T22:18:54.578Z,1.20
2019-01-05T22:24:09.614Z,1.60
2019-01-05T22:29:26.950Z,1.47
2019-01-05T22:34:40.298Z,2.13
2019-01-05T22:39:58.842Z,1.53
2019-01-05T22:45:17.506Z,1.37
2019-01-05T22:50:29.229Z,1.27
2019-01-05T22:55:46.955Z,1.17
2019-01-05T23:01:04.693Z,1.30
2019-01-05T23:06:32.315Z,1.10
2019-01-05T23:11:43.302Z,1.07
2019-01-05T23:17:05.359Z,0.90
2019-01-05T23:22:23.294Z,1.63
2019-01-05T23:27:57.293Z,0.90
2019-01-05T23:33:16.518Z,3.50
2019-01-05T23:38:50.107Z,1.33
2019-01-05T23:44:05.006Z,1.57
2019-01-05T23:49:22.347Z,1.50
2019-01-05T23:54:45.199Z,0.90
